sensor_id;sensor_type;location;lat;lon;timestamp;P1;durP1;ratioP1;P2;durP2;ratioP2
26634;SDS011;14490;54.208;37.686;2023-04-24T00:01:27;26.88;;;10.48;;
26634;SDS011;14490;54.208;37.686;2023-04-24T00:03:55;22.15;;;12.13;;
26634;SDS011;14490;54.208;37.686;2023-04-24T00:06:24;20.58;;;10.18;;
26634;SDS011;14490;54.208;37.686;2023-04-24T00:08:58;28.52;;;10.43;;
26634;SDS011;14490;54.208;37.686;2023-04-24T00:11:27;24.50;;;10.90;;
26634;SDS011;14490;54.208;37.686;2023-04-24T00:13:54;25.45;;;11.65;;
26634;SDS011;14490;54.208;37.686;2023-04-24T00:16:22;30.90;;;13.63;;
26634;SDS011;14490;54.208;37.686;2023-04-24T00:18:51;28.02;;;12.70;;
26634;SDS011;14490;54.208;37.686;2023-04-24T00:21:19;28.92;;;12.48;;
26634;SDS011;14490;54.208;37.686;2023-04-24T00:23:46;21.80;;;12.02;;
26634;SDS011;14490;54.208;37.686;2023-04-24T00:26:14;24.67;;;13.10;;
26634;SDS011;14490;54.208;37.686;2023-04-24T00:28:41;36.65;;;12.70;;
26634;SDS011;14490;54.208;37.686;2023-04-24T00:31:09;31.08;;;12.65;;
26634;SDS011;14490;54.208;37.686;2023-04-24T00:33:36;21.30;;;11.07;;
26634;SDS011;14490;54.208;37.686;2023-04-24T00:36:05;21.67;;;10.85;;
26634;SDS011;14490;54.208;37.686;2023-04-24T00:38:33;27.25;;;12.77;;
26634;SDS011;14490;54.208;37.686;2023-04-24T00:41:00;29.58;;;13.02;;
26634;SDS011;14490;54.208;37.686;2023-04-24T00:43:28;19.75;;;10.55;;
26634;SDS011;14490;54.208;37.686;2023-04-24T00:45:56;33.40;;;13.05;;
26634;SDS011;14490;54.208;37.686;2023-04-24T00:48:24;26.63;;;12.55;;
26634;SDS011;14490;54.208;37.686;2023-04-24T00:50:52;26.52;;;11.98;;
26634;SDS011;14490;54.208;37.686;2023-04-24T00:53:22;22.23;;;11.43;;
26634;SDS011;14490;54.208;37.686;2023-04-24T00:55:49;18.33;;;8.93;;
26634;SDS011;14490;54.208;37.686;2023-04-24T00:58:17;22.95;;;10.00;;
26634;SDS011;14490;54.208;37.686;2023-04-24T01:00:45;20.05;;;8.73;;
26634;SDS011;14490;54.208;37.686;2023-04-24T01:03:13;16.58;;;9.00;;
26634;SDS011;14490;54.208;37.686;2023-04-24T01:05:41;15.73;;;7.97;;
26634;SDS011;14490;54.208;37.686;2023-04-24T01:08:08;18.60;;;8.60;;
26634;SDS011;14490;54.208;37.686;2023-04-24T01:10:38;21.17;;;8.90;;
26634;SDS011;14490;54.208;37.686;2023-04-24T01:13:07;21.25;;;10.38;;
26634;SDS011;14490;54.208;37.686;2023-04-24T01:15:35;29.35;;;11.65;;
26634;SDS011;14490;54.208;37.686;2023-04-24T01:18:02;21.42;;;10.60;;
26634;SDS011;14490;54.208;37.686;2023-04-24T01:20:33;21.30;;;9.63;;
26634;SDS011;14490;54.208;37.686;2023-04-24T01:23:03;19.00;;;9.00;;
26634;SDS011;14490;54.208;37.686;2023-04-24T01:25:30;18.17;;;8.63;;
26634;SDS011;14490;54.208;37.686;2023-04-24T01:27:58;23.83;;;9.88;;
26634;SDS011;14490;54.208;37.686;2023-04-24T01:30:26;21.42;;;8.73;;
26634;SDS011;14490;54.208;37.686;2023-04-24T01:32:54;20.55;;;8.57;;
26634;SDS011;14490;54.208;37.686;2023-04-24T01:35:23;24.42;;;8.55;;
26634;SDS011;14490;54.208;37.686;2023-04-24T01:37:50;24.58;;;9.52;;
26634;SDS011;14490;54.208;37.686;2023-04-24T01:40:19;26.02;;;9.80;;
26634;SDS011;14490;54.208;37.686;2023-04-24T01:42:47;19.10;;;9.73;;
26634;SDS011;14490;54.208;37.686;2023-04-24T01:45:14;19.45;;;9.43;;
26634;SDS011;14490;54.208;37.686;2023-04-24T01:47:42;22.27;;;9.18;;
26634;SDS011;14490;54.208;37.686;2023-04-24T01:50:10;20.48;;;8.60;;
26634;SDS011;14490;54.208;37.686;2023-04-24T01:52:38;20.02;;;9.35;;
26634;SDS011;14490;54.208;37.686;2023-04-24T01:55:06;19.90;;;8.75;;
26634;SDS011;14490;54.208;37.686;2023-04-24T01:57:36;22.65;;;9.32;;
26634;SDS011;14490;54.208;37.686;2023-04-24T02:00:04;21.02;;;9.98;;
26634;SDS011;14490;54.208;37.686;2023-04-24T02:02:32;26.35;;;10.00;;
26634;SDS011;14490;54.208;37.686;2023-04-24T02:05:00;26.45;;;9.65;;
26634;SDS011;14490;54.208;37.686;2023-04-24T02:07:28;24.52;;;10.38;;
26634;SDS011;14490;54.208;37.686;2023-04-24T02:09:55;32.05;;;10.13;;
26634;SDS011;14490;54.208;37.686;2023-04-24T02:12:23;23.63;;;9.52;;
26634;SDS011;14490;54.208;37.686;2023-04-24T02:14:52;29.27;;;11.80;;
26634;SDS011;14490;54.208;37.686;2023-04-24T02:17:19;25.73;;;10.18;;
26634;SDS011;14490;54.208;37.686;2023-04-24T02:19:46;27.42;;;11.07;;
26634;SDS011;14490;54.208;37.686;2023-04-24T02:22:17;26.50;;;10.38;;
26634;SDS011;14490;54.208;37.686;2023-04-24T02:24:50;22.70;;;12.55;;
26634;SDS011;14490;54.208;37.686;2023-04-24T02:27:18;34.45;;;11.82;;
26634;SDS011;14490;54.208;37.686;2023-04-24T02:29:45;31.33;;;10.13;;
26634;SDS011;14490;54.208;37.686;2023-04-24T02:32:14;37.35;;;11.65;;
26634;SDS011;14490;54.208;37.686;2023-04-24T02:34:41;33.45;;;10.98;;
26634;SDS011;14490;54.208;37.686;2023-04-24T02:37:09;26.50;;;10.05;;
26634;SDS011;14490;54.208;37.686;2023-04-24T02:39:36;25.88;;;11.27;;
26634;SDS011;14490;54.208;37.686;2023-04-24T02:42:04;32.25;;;12.15;;
26634;SDS011;14490;54.208;37.686;2023-04-24T02:44:33;29.73;;;11.60;;
26634;SDS011;14490;54.208;37.686;2023-04-24T02:47:00;29.40;;;11.23;;
26634;SDS011;14490;54.208;37.686;2023-04-24T02:49:29;36.25;;;10.73;;
26634;SDS011;14490;54.208;37.686;2023-04-24T02:51:57;24.58;;;9.75;;
26634;SDS011;14490;54.208;37.686;2023-04-24T02:54:24;22.67;;;9.82;;
26634;SDS011;14490;54.208;37.686;2023-04-24T02:56:52;17.90;;;8.95;;
26634;SDS011;14490;54.208;37.686;2023-04-24T02:59:19;28.35;;;9.40;;
26634;SDS011;14490;54.208;37.686;2023-04-24T03:01:46;14.48;;;8.20;;
26634;SDS011;14490;54.208;37.686;2023-04-24T03:04:14;16.42;;;9.00;;
26634;SDS011;14490;54.208;37.686;2023-04-24T03:06:43;18.95;;;8.45;;
26634;SDS011;14490;54.208;37.686;2023-04-24T03:09:10;21.45;;;9.10;;
26634;SDS011;14490;54.208;37.686;2023-04-24T03:11:38;18.35;;;8.75;;
26634;SDS011;14490;54.208;37.686;2023-04-24T03:14:05;27.67;;;9.77;;
26634;SDS011;14490;54.208;37.686;2023-04-24T03:16:33;44.15;;;12.77;;
26634;SDS011;14490;54.208;37.686;2023-04-24T03:19:00;58.03;;;12.18;;
26634;SDS011;14490;54.208;37.686;2023-04-24T03:21:28;34.40;;;10.23;;
26634;SDS011;14490;54.208;37.686;2023-04-24T03:24:07;42.05;;;10.43;;
26634;SDS011;14490;54.208;37.686;2023-04-24T03:26:37;51.50;;;11.45;;
26634;SDS011;14490;54.208;37.686;2023-04-24T03:29:05;27.48;;;9.75;;
26634;SDS011;14490;54.208;37.686;2023-04-24T03:31:32;45.00;;;12.32;;
26634;SDS011;14490;54.208;37.686;2023-04-24T03:33:59;57.40;;;12.80;;
26634;SDS011;14490;54.208;37.686;2023-04-24T03:36:29;50.95;;;12.50;;
26634;SDS011;14490;54.208;37.686;2023-04-24T03:38:57;41.90;;;11.32;;
26634;SDS011;14490;54.208;37.686;2023-04-24T03:41:26;45.83;;;13.43;;
26634;SDS011;14490;54.208;37.686;2023-04-24T03:43:54;55.65;;;13.50;;
26634;SDS011;14490;54.208;37.686;2023-04-24T03:46:21;61.75;;;14.25;;
26634;SDS011;14490;54.208;37.686;2023-04-24T03:48:49;70.55;;;17.20;;
26634;SDS011;14490;54.208;37.686;2023-04-24T03:51:17;75.90;;;17.80;;
26634;SDS011;14490;54.208;37.686;2023-04-24T03:53:44;61.22;;;16.10;;
26634;SDS011;14490;54.208;37.686;2023-04-24T03:56:12;69.18;;;15.10;;
26634;SDS011;14490;54.208;37.686;2023-04-24T03:58:41;59.97;;;15.25;;
26634;SDS011;14490;54.208;37.686;2023-04-24T04:01:08;61.78;;;16.30;;
26634;SDS011;14490;54.208;37.686;2023-04-24T04:03:36;71.50;;;16.88;;
26634;SDS011;14490;54.208;37.686;2023-04-24T04:06:04;65.38;;;18.27;;
26634;SDS011;14490;54.208;37.686;2023-04-24T04:08:32;86.60;;;17.25;;
26634;SDS011;14490;54.208;37.686;2023-04-24T04:11:05;82.72;;;17.95;;
26634;SDS011;14490;54.208;37.686;2023-04-24T04:13:35;87.25;;;18.63;;
26634;SDS011;14490;54.208;37.686;2023-04-24T04:16:05;87.63;;;18.25;;
26634;SDS011;14490;54.208;37.686;2023-04-24T04:18:32;60.97;;;16.40;;
26634;SDS011;14490;54.208;37.686;2023-04-24T04:21:00;71.38;;;18.30;;
26634;SDS011;14490;54.208;37.686;2023-04-24T04:23:27;81.45;;;16.98;;
26634;SDS011;14490;54.208;37.686;2023-04-24T04:25:55;56.72;;;16.35;;
26634;SDS011;14490;54.208;37.686;2023-04-24T04:28:23;68.53;;;14.90;;
26634;SDS011;14490;54.208;37.686;2023-04-24T04:30:50;48.28;;;14.65;;
26634;SDS011;14490;54.208;37.686;2023-04-24T04:33:20;53.38;;;13.23;;
26634;SDS011;14490;54.208;37.686;2023-04-24T04:35:47;49.05;;;12.45;;
26634;SDS011;14490;54.208;37.686;2023-04-24T04:38:17;46.97;;;13.23;;
26634;SDS011;14490;54.208;37.686;2023-04-24T04:40:45;45.13;;;12.18;;
26634;SDS011;14490;54.208;37.686;2023-04-24T04:43:16;46.35;;;13.18;;
26634;SDS011;14490;54.208;37.686;2023-04-24T04:45:44;44.03;;;13.50;;
26634;SDS011;14490;54.208;37.686;2023-04-24T04:48:13;49.17;;;13.35;;
26634;SDS011;14490;54.208;37.686;2023-04-24T04:50:44;50.53;;;11.80;;
26634;SDS011;14490;54.208;37.686;2023-04-24T04:53:11;28.42;;;11.85;;
26634;SDS011;14490;54.208;37.686;2023-04-24T04:55:39;32.28;;;10.88;;
26634;SDS011;14490;54.208;37.686;2023-04-24T04:58:06;52.67;;;12.32;;
26634;SDS011;14490;54.208;37.686;2023-04-24T05:00:34;35.30;;;11.70;;
26634;SDS011;14490;54.208;37.686;2023-04-24T05:03:02;50.22;;;13.52;;
26634;SDS011;14490;54.208;37.686;2023-04-24T05:05:30;36.35;;;11.35;;
26634;SDS011;14490;54.208;37.686;2023-04-24T05:07:59;72.13;;;13.35;;
26634;SDS011;14490;54.208;37.686;2023-04-24T05:10:26;62.00;;;14.00;;
26634;SDS011;14490;54.208;37.686;2023-04-24T05:12:53;38.25;;;12.13;;
26634;SDS011;14490;54.208;37.686;2023-04-24T05:15:21;34.28;;;13.30;;
26634;SDS011;14490;54.208;37.686;2023-04-24T05:17:48;51.70;;;14.60;;
26634;SDS011;14490;54.208;37.686;2023-04-24T05:20:16;27.42;;;12.25;;
26634;SDS011;14490;54.208;37.686;2023-04-24T05:22:43;42.30;;;13.25;;
26634;SDS011;14490;54.208;37.686;2023-04-24T05:25:12;45.97;;;12.27;;
26634;SDS011;14490;54.208;37.686;2023-04-24T05:27:40;29.52;;;10.82;;
26634;SDS011;14490;54.208;37.686;2023-04-24T05:30:07;41.78;;;13.18;;
26634;SDS011;14490;54.208;37.686;2023-04-24T05:32:36;32.10;;;12.52;;
26634;SDS011;14490;54.208;37.686;2023-04-24T05:35:03;29.55;;;12.10;;
26634;SDS011;14490;54.208;37.686;2023-04-24T05:37:31;33.25;;;11.88;;
26634;SDS011;14490;54.208;37.686;2023-04-24T05:39:59;43.10;;;12.48;;
26634;SDS011;14490;54.208;37.686;2023-04-24T05:44:56;30.13;;;11.98;;
26634;SDS011;14490;54.208;37.686;2023-04-24T05:47:24;29.88;;;11.85;;
26634;SDS011;14490;54.208;37.686;2023-04-24T05:49:51;30.90;;;13.23;;
26634;SDS011;14490;54.208;37.686;2023-04-24T05:52:19;42.28;;;14.27;;
26634;SDS011;14490;54.208;37.686;2023-04-24T05:54:50;31.03;;;12.23;;
26634;SDS011;14490;54.208;37.686;2023-04-24T05:57:20;28.05;;;12.80;;
26634;SDS011;14490;54.208;37.686;2023-04-24T05:59:49;26.55;;;11.77;;
26634;SDS011;14490;54.208;37.686;2023-04-24T06:02:20;38.42;;;13.20;;
26634;SDS011;14490;54.208;37.686;2023-04-24T06:04:48;27.73;;;11.95;;
26634;SDS011;14490;54.208;37.686;2023-04-24T06:07:15;39.35;;;13.45;;
26634;SDS011;14490;54.208;37.686;2023-04-24T06:09:43;29.63;;;12.98;;
26634;SDS011;14490;54.208;37.686;2023-04-24T06:12:11;35.75;;;14.52;;
26634;SDS011;14490;54.208;37.686;2023-04-24T06:14:40;40.90;;;16.00;;
26634;SDS011;14490;54.208;37.686;2023-04-24T06:17:09;42.85;;;15.73;;
26634;SDS011;14490;54.208;37.686;2023-04-24T06:19:38;35.50;;;17.42;;
26634;SDS011;14490;54.208;37.686;2023-04-24T06:22:06;33.20;;;16.42;;
26634;SDS011;14490;54.208;37.686;2023-04-24T06:24:36;39.22;;;16.00;;
26634;SDS011;14490;54.208;37.686;2023-04-24T06:27:03;36.40;;;13.55;;
26634;SDS011;14490;54.208;37.686;2023-04-24T06:29:31;31.80;;;12.70;;
26634;SDS011;14490;54.208;37.686;2023-04-24T06:31:59;22.30;;;11.65;;
26634;SDS011;14490;54.208;37.686;2023-04-24T06:34:28;25.08;;;12.68;;
26634;SDS011;14490;54.208;37.686;2023-04-24T06:36:56;26.88;;;12.20;;
26634;SDS011;14490;54.208;37.686;2023-04-24T06:39:23;22.92;;;11.00;;
26634;SDS011;14490;54.208;37.686;2023-04-24T06:41:51;25.63;;;11.25;;
26634;SDS011;14490;54.208;37.686;2023-04-24T06:44:18;28.13;;;12.38;;
26634;SDS011;14490;54.208;37.686;2023-04-24T06:46:46;34.20;;;13.40;;
26634;SDS011;14490;54.208;37.686;2023-04-24T06:49:13;19.50;;;9.68;;
26634;SDS011;14490;54.208;37.686;2023-04-24T06:51:43;22.73;;;9.68;;
26634;SDS011;14490;54.208;37.686;2023-04-24T06:54:10;21.48;;;10.20;;
26634;SDS011;14490;54.208;37.686;2023-04-24T06:56:38;23.02;;;10.00;;
26634;SDS011;14490;54.208;37.686;2023-04-24T06:59:05;29.77;;;12.80;;
26634;SDS011;14490;54.208;37.686;2023-04-24T07:01:32;26.52;;;13.38;;
26634;SDS011;14490;54.208;37.686;2023-04-24T07:04:00;19.33;;;12.00;;
26634;SDS011;14490;54.208;37.686;2023-04-24T07:06:27;31.50;;;14.05;;
26634;SDS011;14490;54.208;37.686;2023-04-24T07:08:57;24.40;;;12.88;;
26634;SDS011;14490;54.208;37.686;2023-04-24T07:11:24;22.63;;;9.27;;
26634;SDS011;14490;54.208;37.686;2023-04-24T07:13:54;32.83;;;10.90;;
26634;SDS011;14490;54.208;37.686;2023-04-24T07:16:22;24.90;;;9.13;;
26634;SDS011;14490;54.208;37.686;2023-04-24T07:18:49;40.17;;;8.18;;
26634;SDS011;14490;54.208;37.686;2023-04-24T07:21:17;25.42;;;8.63;;
26634;SDS011;14490;54.208;37.686;2023-04-24T07:23:44;29.52;;;8.90;;
26634;SDS011;14490;54.208;37.686;2023-04-24T07:26:13;18.45;;;8.90;;
26634;SDS011;14490;54.208;37.686;2023-04-24T07:28:41;22.80;;;8.85;;
26634;SDS011;14490;54.208;37.686;2023-04-24T07:31:08;18.65;;;8.00;;
26634;SDS011;14490;54.208;37.686;2023-04-24T07:33:38;16.27;;;7.88;;
26634;SDS011;14490;54.208;37.686;2023-04-24T07:36:05;22.05;;;7.57;;
26634;SDS011;14490;54.208;37.686;2023-04-24T07:38:33;16.58;;;7.10;;
26634;SDS011;14490;54.208;37.686;2023-04-24T07:41:00;33.97;;;8.80;;
26634;SDS011;14490;54.208;37.686;2023-04-24T07:43:29;19.10;;;6.80;;
26634;SDS011;14490;54.208;37.686;2023-04-24T07:45:56;15.95;;;5.80;;
26634;SDS011;14490;54.208;37.686;2023-04-24T07:48:24;33.83;;;7.28;;
26634;SDS011;14490;54.208;37.686;2023-04-24T07:50:51;18.63;;;5.95;;
26634;SDS011;14490;54.208;37.686;2023-04-24T07:53:19;10.90;;;4.97;;
26634;SDS011;14490;54.208;37.686;2023-04-24T07:55:46;11.52;;;6.18;;
26634;SDS011;14490;54.208;37.686;2023-04-24T07:58:14;22.40;;;7.40;;
26634;SDS011;14490;54.208;37.686;2023-04-24T08:00:43;9.80;;;3.90;;
26634;SDS011;14490;54.208;37.686;2023-04-24T08:03:10;9.43;;;3.45;;
26634;SDS011;14490;54.208;37.686;2023-04-24T08:05:38;5.18;;;2.65;;
26634;SDS011;14490;54.208;37.686;2023-04-24T08:08:05;5.95;;;3.17;;
26634;SDS011;14490;54.208;37.686;2023-04-24T08:10:33;8.00;;;3.15;;
26634;SDS011;14490;54.208;37.686;2023-04-24T08:13:00;6.72;;;2.58;;
26634;SDS011;14490;54.208;37.686;2023-04-24T08:15:28;11.18;;;2.63;;
26634;SDS011;14490;54.208;37.686;2023-04-24T08:17:57;9.00;;;4.13;;
26634;SDS011;14490;54.208;37.686;2023-04-24T08:20:24;6.32;;;3.22;;
26634;SDS011;14490;54.208;37.686;2023-04-24T08:22:52;13.68;;;3.15;;
26634;SDS011;14490;54.208;37.686;2023-04-24T08:25:20;6.78;;;3.25;;
26634;SDS011;14490;54.208;37.686;2023-04-24T08:27:48;8.07;;;3.78;;
26634;SDS011;14490;54.208;37.686;2023-04-24T08:30:15;13.48;;;3.70;;
26634;SDS011;14490;54.208;37.686;2023-04-24T08:32:43;7.18;;;2.60;;
26634;SDS011;14490;54.208;37.686;2023-04-24T08:35:11;5.82;;;2.53;;
26634;SDS011;14490;54.208;37.686;2023-04-24T08:37:39;7.18;;;2.88;;
26634;SDS011;14490;54.208;37.686;2023-04-24T08:40:12;10.40;;;3.00;;
26634;SDS011;14490;54.208;37.686;2023-04-24T08:42:41;10.48;;;2.42;;
26634;SDS011;14490;54.208;37.686;2023-04-24T08:45:10;30.52;;;3.78;;
26634;SDS011;14490;54.208;37.686;2023-04-24T08:47:39;5.28;;;2.30;;
26634;SDS011;14490;54.208;37.686;2023-04-24T08:50:09;3.90;;;1.90;;
26634;SDS011;14490;54.208;37.686;2023-04-24T08:55:09;10.05;;;2.42;;
26634;SDS011;14490;54.208;37.686;2023-04-24T08:57:36;6.70;;;2.67;;
26634;SDS011;14490;54.208;37.686;2023-04-24T09:00:06;4.50;;;2.35;;
26634;SDS011;14490;54.208;37.686;2023-04-24T09:02:34;11.65;;;1.60;;
26634;SDS011;14490;54.208;37.686;2023-04-24T09:05:02;5.60;;;2.05;;
26634;SDS011;14490;54.208;37.686;2023-04-24T09:07:31;5.15;;;2.53;;
26634;SDS011;14490;54.208;37.686;2023-04-24T09:10:03;8.18;;;2.13;;
26634;SDS011;14490;54.208;37.686;2023-04-24T09:12:31;4.55;;;2.47;;
26634;SDS011;14490;54.208;37.686;2023-04-24T09:14:59;9.18;;;2.00;;
26634;SDS011;14490;54.208;37.686;2023-04-24T09:17:28;4.88;;;2.30;;
26634;SDS011;14490;54.208;37.686;2023-04-24T09:19:56;3.78;;;2.00;;
26634;SDS011;14490;54.208;37.686;2023-04-24T09:22:24;9.23;;;2.45;;
26634;SDS011;14490;54.208;37.686;2023-04-24T09:25:01;7.65;;;2.60;;
26634;SDS011;14490;54.208;37.686;2023-04-24T09:27:31;4.93;;;2.70;;
26634;SDS011;14490;54.208;37.686;2023-04-24T09:30:00;5.75;;;3.08;;
26634;SDS011;14490;54.208;37.686;2023-04-24T09:32:28;8.10;;;2.25;;
26634;SDS011;14490;54.208;37.686;2023-04-24T09:35:09;19.20;;;3.17;;
26634;SDS011;14490;54.208;37.686;2023-04-24T09:37:39;4.70;;;2.30;;
26634;SDS011;14490;54.208;37.686;2023-04-24T09:40:14;6.13;;;2.28;;
26634;SDS011;14490;54.208;37.686;2023-04-24T09:42:44;12.30;;;2.78;;
26634;SDS011;14490;54.208;37.686;2023-04-24T09:45:12;8.73;;;2.17;;
26634;SDS011;14490;54.208;37.686;2023-04-24T09:47:40;6.53;;;1.88;;
26634;SDS011;14490;54.208;37.686;2023-04-24T09:50:12;4.50;;;2.20;;
26634;SDS011;14490;54.208;37.686;2023-04-24T09:52:43;8.60;;;2.88;;
26634;SDS011;14490;54.208;37.686;2023-04-24T09:55:16;6.47;;;2.30;;
26634;SDS011;14490;54.208;37.686;2023-04-24T09:57:47;6.10;;;2.08;;
26634;SDS011;14490;54.208;37.686;2023-04-24T10:00:23;6.88;;;2.88;;
26634;SDS011;14490;54.208;37.686;2023-04-24T10:02:55;8.32;;;2.97;;
26634;SDS011;14490;54.208;37.686;2023-04-24T10:05:24;6.13;;;2.90;;
26634;SDS011;14490;54.208;37.686;2023-04-24T10:07:59;10.27;;;3.03;;
26634;SDS011;14490;54.208;37.686;2023-04-24T10:10:31;8.35;;;2.50;;
26634;SDS011;14490;54.208;37.686;2023-04-24T10:13:00;40.03;;;5.45;;
26634;SDS011;14490;54.208;37.686;2023-04-24T10:15:27;5.68;;;2.88;;
26634;SDS011;14490;54.208;37.686;2023-04-24T10:17:55;9.48;;;2.60;;
26634;SDS011;14490;54.208;37.686;2023-04-24T10:20:25;8.40;;;2.50;;
26634;SDS011;14490;54.208;37.686;2023-04-24T10:22:55;15.77;;;3.00;;
26634;SDS011;14490;54.208;37.686;2023-04-24T10:25:24;8.52;;;2.53;;
26634;SDS011;14490;54.208;37.686;2023-04-24T10:27:56;6.30;;;3.05;;
26634;SDS011;14490;54.208;37.686;2023-04-24T10:30:26;3.08;;;2.03;;
26634;SDS011;14490;54.208;37.686;2023-04-24T10:32:56;7.97;;;2.08;;
26634;SDS011;14490;54.208;37.686;2023-04-24T10:35:23;7.30;;;2.28;;
26634;SDS011;14490;54.208;37.686;2023-04-24T10:37:54;7.05;;;2.30;;
26634;SDS011;14490;54.208;37.686;2023-04-24T10:40:26;14.35;;;3.30;;
26634;SDS011;14490;54.208;37.686;2023-04-24T10:42:58;9.27;;;3.40;;
26634;SDS011;14490;54.208;37.686;2023-04-24T10:45:31;5.93;;;3.05;;
26634;SDS011;14490;54.208;37.686;2023-04-24T10:47:59;5.00;;;2.53;;
26634;SDS011;14490;54.208;37.686;2023-04-24T10:50:30;9.15;;;2.40;;
26634;SDS011;14490;54.208;37.686;2023-04-24T10:53:13;6.65;;;2.15;;
26634;SDS011;14490;54.208;37.686;2023-04-24T10:55:43;8.35;;;3.22;;
26634;SDS011;14490;54.208;37.686;2023-04-24T10:58:18;4.50;;;2.60;;
26634;SDS011;14490;54.208;37.686;2023-04-24T11:00:55;5.05;;;2.20;;
26634;SDS011;14490;54.208;37.686;2023-04-24T11:03:25;9.65;;;3.05;;
26634;SDS011;14490;54.208;37.686;2023-04-24T11:05:57;4.82;;;2.25;;
26634;SDS011;14490;54.208;37.686;2023-04-24T11:08:30;4.15;;;2.45;;
26634;SDS011;14490;54.208;37.686;2023-04-24T11:11:07;6.40;;;2.58;;
26634;SDS011;14490;54.208;37.686;2023-04-24T11:16:51;8.77;;;2.78;;
26634;SDS011;14490;54.208;37.686;2023-04-24T11:19:23;8.88;;;2.10;;
26634;SDS011;14490;54.208;37.686;2023-04-24T11:21:55;5.65;;;2.88;;
26634;SDS011;14490;54.208;37.686;2023-04-24T11:24:27;5.07;;;2.30;;
26634;SDS011;14490;54.208;37.686;2023-04-24T11:26:58;8.90;;;2.35;;
26634;SDS011;14490;54.208;37.686;2023-04-24T11:29:44;2.97;;;1.90;;
26634;SDS011;14490;54.208;37.686;2023-04-24T11:32:19;9.57;;;2.67;;
26634;SDS011;14490;54.208;37.686;2023-04-24T11:34:52;5.65;;;2.28;;
26634;SDS011;14490;54.208;37.686;2023-04-24T11:37:21;16.48;;;2.70;;
26634;SDS011;14490;54.208;37.686;2023-04-24T11:39:53;5.60;;;2.85;;
26634;SDS011;14490;54.208;37.686;2023-04-24T11:42:28;4.05;;;1.88;;
26634;SDS011;14490;54.208;37.686;2023-04-24T11:45:02;6.90;;;2.58;;
26634;SDS011;14490;54.208;37.686;2023-04-24T11:47:35;14.02;;;2.83;;
26634;SDS011;14490;54.208;37.686;2023-04-24T11:50:04;4.95;;;1.73;;
26634;SDS011;14490;54.208;37.686;2023-04-24T11:52:36;6.22;;;2.10;;
26634;SDS011;14490;54.208;37.686;2023-04-24T11:55:07;11.98;;;2.22;;
26634;SDS011;14490;54.208;37.686;2023-04-24T11:57:36;5.25;;;2.45;;
26634;SDS011;14490;54.208;37.686;2023-04-24T12:00:05;4.00;;;2.08;;
26634;SDS011;14490;54.208;37.686;2023-04-24T12:02:35;11.25;;;3.10;;
26634;SDS011;14490;54.208;37.686;2023-04-24T12:05:02;5.72;;;2.17;;
26634;SDS011;14490;54.208;37.686;2023-04-24T12:07:30;6.13;;;2.70;;
26634;SDS011;14490;54.208;37.686;2023-04-24T12:10:09;3.55;;;2.15;;
26634;SDS011;14490;54.208;37.686;2023-04-24T12:12:39;8.68;;;2.40;;
26634;SDS011;14490;54.208;37.686;2023-04-24T12:15:08;3.08;;;2.03;;
26634;SDS011;14490;54.208;37.686;2023-04-24T12:17:40;8.40;;;2.67;;
26634;SDS011;14490;54.208;37.686;2023-04-24T12:20:08;3.63;;;2.20;;
26634;SDS011;14490;54.208;37.686;2023-04-24T12:22:44;6.88;;;3.22;;
26634;SDS011;14490;54.208;37.686;2023-04-24T12:25:13;88.80;;;20.55;;
26634;SDS011;14490;54.208;37.686;2023-04-24T12:27:42;6.63;;;3.53;;
26634;SDS011;14490;54.208;37.686;2023-04-24T12:30:13;5.85;;;2.35;;
26634;SDS011;14490;54.208;37.686;2023-04-24T12:32:44;7.30;;;3.17;;
26634;SDS011;14490;54.208;37.686;2023-04-24T12:37:45;6.65;;;3.08;;
26634;SDS011;14490;54.208;37.686;2023-04-24T12:40:12;10.00;;;3.45;;
26634;SDS011;14490;54.208;37.686;2023-04-24T12:42:42;10.68;;;3.10;;
26634;SDS011;14490;54.208;37.686;2023-04-24T12:45:15;9.77;;;3.30;;
26634;SDS011;14490;54.208;37.686;2023-04-24T12:47:44;5.78;;;2.42;;
26634;SDS011;14490;54.208;37.686;2023-04-24T12:50:13;5.00;;;2.33;;
26634;SDS011;14490;54.208;37.686;2023-04-24T12:52:42;10.85;;;3.17;;
26634;SDS011;14490;54.208;37.686;2023-04-24T12:55:10;10.57;;;3.45;;
26634;SDS011;14490;54.208;37.686;2023-04-24T12:57:38;7.03;;;3.00;;
26634;SDS011;14490;54.208;37.686;2023-04-24T13:00:07;14.50;;;3.80;;
26634;SDS011;14490;54.208;37.686;2023-04-24T13:02:36;7.35;;;2.65;;
26634;SDS011;14490;54.208;37.686;2023-04-24T13:05:05;6.20;;;3.08;;
26634;SDS011;14490;54.208;37.686;2023-04-24T13:07:33;6.28;;;2.88;;
26634;SDS011;14490;54.208;37.686;2023-04-24T13:10:00;7.47;;;2.72;;
26634;SDS011;14490;54.208;37.686;2023-04-24T13:12:28;6.07;;;2.45;;
26634;SDS011;14490;54.208;37.686;2023-04-24T13:14:55;12.20;;;3.33;;
26634;SDS011;14490;54.208;37.686;2023-04-24T13:17:24;6.05;;;2.67;;
26634;SDS011;14490;54.208;37.686;2023-04-24T13:19:53;10.57;;;2.72;;
26634;SDS011;14490;54.208;37.686;2023-04-24T13:22:21;7.50;;;2.92;;
26634;SDS011;14490;54.208;37.686;2023-04-24T13:24:49;11.30;;;5.88;;
26634;SDS011;14490;54.208;37.686;2023-04-24T13:27:16;5.03;;;2.85;;
26634;SDS011;14490;54.208;37.686;2023-04-24T13:29:45;6.03;;;2.60;;
26634;SDS011;14490;54.208;37.686;2023-04-24T13:32:16;8.23;;;2.25;;
26634;SDS011;14490;54.208;37.686;2023-04-24T13:34:44;8.50;;;2.25;;
26634;SDS011;14490;54.208;37.686;2023-04-24T13:37:13;3.72;;;1.80;;
26634;SDS011;14490;54.208;37.686;2023-04-24T13:39:41;3.30;;;2.33;;
26634;SDS011;14490;54.208;37.686;2023-04-24T13:42:08;4.28;;;1.70;;
26634;SDS011;14490;54.208;37.686;2023-04-24T13:44:36;5.55;;;2.22;;
26634;SDS011;14490;54.208;37.686;2023-04-24T13:47:07;7.53;;;4.10;;
26634;SDS011;14490;54.208;37.686;2023-04-24T13:49:37;4.60;;;2.60;;
26634;SDS011;14490;54.208;37.686;2023-04-24T13:52:05;4.38;;;1.75;;
26634;SDS011;14490;54.208;37.686;2023-04-24T13:54:34;4.35;;;1.98;;
26634;SDS011;14490;54.208;37.686;2023-04-24T13:57:01;3.28;;;2.05;;
26634;SDS011;14490;54.208;37.686;2023-04-24T13:59:29;6.35;;;2.05;;
26634;SDS011;14490;54.208;37.686;2023-04-24T14:01:57;14.50;;;2.80;;
26634;SDS011;14490;54.208;37.686;2023-04-24T14:04:25;6.47;;;2.15;;
26634;SDS011;14490;54.208;37.686;2023-04-24T14:06:52;5.10;;;1.45;;
26634;SDS011;14490;54.208;37.686;2023-04-24T14:09:19;13.40;;;3.05;;
26634;SDS011;14490;54.208;37.686;2023-04-24T14:11:48;5.97;;;2.13;;
26634;SDS011;14490;54.208;37.686;2023-04-24T14:14:16;6.43;;;2.95;;
26634;SDS011;14490;54.208;37.686;2023-04-24T14:16:46;11.45;;;2.70;;
26634;SDS011;14490;54.208;37.686;2023-04-24T14:19:15;6.47;;;2.10;;
26634;SDS011;14490;54.208;37.686;2023-04-24T14:21:50;3.58;;;2.17;;
26634;SDS011;14490;54.208;37.686;2023-04-24T14:24:17;4.80;;;2.35;;
26634;SDS011;14490;54.208;37.686;2023-04-24T14:26:45;9.30;;;2.95;;
26634;SDS011;14490;54.208;37.686;2023-04-24T14:29:14;5.53;;;2.25;;
26634;SDS011;14490;54.208;37.686;2023-04-24T14:31:44;12.50;;;2.70;;
26634;SDS011;14490;54.208;37.686;2023-04-24T14:34:13;7.72;;;2.30;;
26634;SDS011;14490;54.208;37.686;2023-04-24T14:36:46;4.57;;;1.75;;
26634;SDS011;14490;54.208;37.686;2023-04-24T14:39:16;4.68;;;1.73;;
26634;SDS011;14490;54.208;37.686;2023-04-24T14:41:49;7.68;;;2.17;;